sensor_id;sensor_type;location;lat;lon;timestamp;pressure;altitude;pressure_sealevel;temperature;humidity
60345;BME280;46188;52.324;8.032;2024-02-23T00:01:57;97269.53;;;7.30;100.00
60345;BME280;46188;52.324;8.032;2024-02-23T00:04:23;97253.16;;;7.22;100.00
60345;BME280;46188;52.324;8.032;2024-02-23T00:06:48;97263.00;;;7.14;100.00
60345;BME280;46188;52.324;8.032;2024-02-23T00:09:13;97291.09;;;7.07;100.00
60345;BME280;46188;52.324;8.032;2024-02-23T00:11:42;97279.00;;;7.01;100.00
60345;BME280;46188;52.324;8.032;2024-02-23T00:14:12;97303.63;;;6.96;100.00
60345;BME280;46188;52.324;8.032;2024-02-23T00:16:41;97339.63;;;6.86;100.00
60345;BME280;46188;52.324;8.032;2024-02-23T00:19:09;97360.84;;;6.75;100.00
60345;BME280;46188;52.324;8.032;2024-02-23T00:21:38;97378.63;;;6.61;100.00
60345;BME280;46188;52.324;8.032;2024-02-23T00:24:04;97392.06;;;6.45;100.00
60345;BME280;46188;52.324;8.032;2024-02-23T00:26:30;97402.03;;;6.28;100.00
60345;BME280;46188;52.324;8.032;2024-02-23T00:28:55;97405.78;;;6.15;100.00
60345;BME280;46188;52.324;8.032;2024-02-23T00:31:21;97426.13;;;6.00;100.00
60345;BME280;46188;52.324;8.032;2024-02-23T00:33:46;97448.09;;;5.90;100.00
60345;BME280;46188;52.324;8.032;2024-02-23T00:36:11;97432.66;;;5.76;100.00
60345;BME280;46188;52.324;8.032;2024-02-23T00:38:37;97445.06;;;5.65;100.00
60345;BME280;46188;52.324;8.032;2024-02-23T00:41:02;97447.84;;;5.55;100.00
60345;BME280;46188;52.324;8.032;2024-02-23T00:43:28;97484.56;;;5.48;100.00
60345;BME280;46188;52.324;8.032;2024-02-23T00:45:56;97471.59;;;5.42;100.00
60345;BME280;46188;52.324;8.032;2024-02-23T00:48:21;97488.22;;;5.36;100.00
60345;BME280;46188;52.324;8.032;2024-02-23T00:50:46;97492.66;;;5.31;100.00
60345;BME280;46188;52.324;8.032;2024-02-23T00:53:12;97511.06;;;5.25;100.00
60345;BME280;46188;52.324;8.032;2024-02-23T00:55:37;97530.25;;;5.21;100.00
60345;BME280;46188;52.324;8.032;2024-02-23T00:58:02;97516.41;;;5.14;100.00
60345;BME280;46188;52.324;8.032;2024-02-23T01:00:28;97546.97;;;5.09;100.00
60345;BME280;46188;52.324;8.032;2024-02-23T01:02:54;97551.38;;;5.05;100.00
60345;BME280;46188;52.324;8.032;2024-02-23T01:05:19;97561.03;;;4.98;100.00
60345;BME280;46188;52.324;8.032;2024-02-23T01:07:44;97575.06;;;4.90;100.00
60345;BME280;46188;52.324;8.032;2024-02-23T01:10:10;97587.31;;;4.83;100.00
60345;BME280;46188;52.324;8.032;2024-02-23T01:12:35;97591.72;;;4.78;100.00
60345;BME280;46188;52.324;8.032;2024-02-23T01:15:00;97604.81;;;4.75;100.00
60345;BME280;46188;52.324;8.032;2024-02-23T01:17:26;97590.09;;;4.69;100.00
60345;BME280;46188;52.324;8.032;2024-02-23T01:19:51;97597.97;;;4.65;100.00
60345;BME280;46188;52.324;8.032;2024-02-23T01:22:17;97618.91;;;4.60;100.00
60345;BME280;46188;52.324;8.032;2024-02-23T01:24:42;97625.91;;;4.56;100.00
60345;BME280;46188;52.324;8.032;2024-02-23T01:27:08;97630.28;;;4.53;100.00
60345;BME280;46188;52.324;8.032;2024-02-23T01:29:33;97633.81;;;4.50;100.00
60345;BME280;46188;52.324;8.032;2024-02-23T01:31:59;97653.81;;;4.47;100.00
60345;BME280;46188;52.324;8.032;2024-02-23T01:34:24;97638.22;;;4.43;100.00
60345;BME280;46188;52.324;8.032;2024-02-23T01:36:50;97642.56;;;4.43;100.00
60345;BME280;46188;52.324;8.032;2024-02-23T01:39:15;97677.38;;;4.40;100.00
60345;BME280;46188;52.324;8.032;2024-02-23T01:41:40;97677.38;;;4.40;100.00
60345;BME280;46188;52.324;8.032;2024-02-23T01:44:05;97689.53;;;4.38;100.00
60345;BME280;46188;52.324;8.032;2024-02-23T01:46:31;97676.53;;;4.37;100.00
60345;BME280;46188;52.324;8.032;2024-02-23T01:48:57;97696.53;;;4.36;100.00
60345;BME280;46188;52.324;8.032;2024-02-23T01:51:24;97696.53;;;4.36;100.00
60345;BME280;46188;52.324;8.032;2024-02-23T01:53:50;97704.34;;;4.36;100.00
60345;BME280;46188;52.324;8.032;2024-02-23T01:56:16;97701.75;;;4.36;100.00
60345;BME280;46188;52.324;8.032;2024-02-23T01:58:43;97703.47;;;4.39;100.00
60345;BME280;46188;52.324;8.032;2024-02-23T02:01:08;97706.94;;;4.39;100.00
60345;BME280;46188;52.324;8.032;2024-02-23T02:03:34;97702.59;;;4.38;100.00
60345;BME280;46188;52.324;8.032;2024-02-23T02:06:00;97717.38;;;4.39;100.00
60345;BME280;46188;52.324;8.032;2024-02-23T02:08:26;97713.03;;;4.38;100.00
60345;BME280;46188;52.324;8.032;2024-02-23T02:10:51;97710.41;;;4.38;100.00
60345;BME280;46188;52.324;8.032;2024-02-23T02:13:17;97727.81;;;4.36;100.00
60345;BME280;46188;52.324;8.032;2024-02-23T02:15:42;97727.81;;;4.36;100.00
60345;BME280;46188;52.324;8.032;2024-02-23T02:18:09;97735.66;;;4.36;100.00
60345;BME280;46188;52.324;8.032;2024-02-23T02:20:35;97739.16;;;4.35;100.00
60345;BME280;46188;52.324;8.032;2024-02-23T02:23:01;97738.25;;;4.36;100.00
60345;BME280;46188;52.324;8.032;2024-02-23T02:25:26;97733.94;;;4.35;100.00
60345;BME280;46188;52.324;8.032;2024-02-23T02:27:52;97740.88;;;4.35;100.00
60345;BME280;46188;52.324;8.032;2024-02-23T02:30:17;97733.06;;;4.32;100.00
60345;BME280;46188;52.324;8.032;2024-02-23T02:32:42;97735.69;;;4.30;100.00
60345;BME280;46188;52.324;8.032;2024-02-23T02:35:10;97747.03;;;4.28;100.00
60345;BME280;46188;52.324;8.032;2024-02-23T02:37:35;97741.84;;;4.24;100.00
60345;BME280;46188;52.324;8.032;2024-02-23T02:40:01;97726.19;;;4.23;100.00
60345;BME280;46188;52.324;8.032;2024-02-23T02:42:27;97748.81;;;4.22;100.00
60345;BME280;46188;52.324;8.032;2024-02-23T02:44:53;97760.09;;;4.21;100.00
60345;BME280;46188;52.324;8.032;2024-02-23T02:47:19;97767.94;;;4.20;100.00
60345;BME280;46188;52.324;8.032;2024-02-23T02:49:44;97752.31;;;4.17;100.00
60345;BME280;46188;52.324;8.032;2024-02-23T02:52:09;97761.88;;;4.16;100.00
60345;BME280;46188;52.324;8.032;2024-02-23T02:54:34;97757.53;;;4.15;100.00
60345;BME280;46188;52.324;8.032;2024-02-23T02:57:00;97759.28;;;4.16;100.00
60345;BME280;46188;52.324;8.032;2024-02-23T02:59:25;97782.75;;;4.16;100.00
60345;BME280;46188;52.324;8.032;2024-02-23T03:01:50;97777.53;;;4.16;100.00
60345;BME280;46188;52.324;8.032;2024-02-23T03:04:15;97782.72;;;4.18;100.00
60345;BME280;46188;52.324;8.032;2024-02-23T03:06:41;97782.72;;;4.18;100.00
60345;BME280;46188;52.324;8.032;2024-02-23T03:09:06;97767.06;;;4.21;100.00
60345;BME280;46188;52.324;8.032;2024-02-23T03:11:32;97776.59;;;4.22;100.00
60345;BME280;46188;52.324;8.032;2024-02-23T03:13:57;97771.38;;;4.22;100.00
60345;BME280;46188;52.324;8.032;2024-02-23T03:16:23;97781.81;;;4.25;100.00
60345;BME280;46188;52.324;8.032;2024-02-23T03:18:50;97785.28;;;4.27;100.00
60345;BME280;46188;52.324;8.032;2024-02-23T03:21:16;97789.59;;;4.30;100.00
60345;BME280;46188;52.324;8.032;2024-02-23T03:23:41;97780.91;;;4.32;100.00
60345;BME280;46188;52.324;8.032;2024-02-23T03:26:07;97796.53;;;4.34;100.00
60345;BME280;46188;52.324;8.032;2024-02-23T03:28:32;97809.53;;;4.37;100.00
60345;BME280;46188;52.324;8.032;2024-02-23T03:30:57;97810.41;;;4.39;100.00
60345;BME280;46188;52.324;8.032;2024-02-23T03:33:23;97810.41;;;4.42;100.00
60345;BME280;46188;52.324;8.032;2024-02-23T03:35:48;97807.78;;;4.43;100.00
60345;BME280;46188;52.324;8.032;2024-02-23T03:38:13;97810.34;;;4.45;100.00
60345;BME280;46188;52.324;8.032;2024-02-23T03:40:38;97813.84;;;4.46;100.00
60345;BME280;46188;52.324;8.032;2024-02-23T03:43:04;97792.97;;;4.47;100.00
60345;BME280;46188;52.324;8.032;2024-02-23T03:45:31;97816.44;;;4.47;100.00
60345;BME280;46188;52.324;8.032;2024-02-23T03:47:56;97815.53;;;4.50;100.00
60345;BME280;46188;52.324;8.032;2024-02-23T03:50:21;97819.88;;;4.51;100.00
60345;BME280;46188;52.324;8.032;2024-02-23T03:52:46;97841.59;;;4.53;100.00
60345;BME280;46188;52.324;8.032;2024-02-23T03:55:12;97832.03;;;4.53;100.00
60345;BME280;46188;52.324;8.032;2024-02-23T03:57:37;97806.81;;;4.55;100.00
60345;BME280;46188;52.324;8.032;2024-02-23T04:00:03;97842.44;;;4.56;100.00
60345;BME280;46188;52.324;8.032;2024-02-23T04:02:28;97826.78;;;4.58;100.00
60345;BME280;46188;52.324;8.032;2024-02-23T04:04:54;97832.84;;;4.60;100.00
60345;BME280;46188;52.324;8.032;2024-02-23T04:07:19;97853.72;;;4.61;100.00
60345;BME280;46188;52.324;8.032;2024-02-23T04:09:45;97855.44;;;4.62;100.00
60345;BME280;46188;52.324;8.032;2024-02-23T04:12:10;97851.97;;;4.64;100.00
60345;BME280;46188;52.324;8.032;2024-02-23T04:14:36;97867.63;;;4.65;100.00
60345;BME280;46188;52.324;8.032;2024-02-23T04:17:04;97854.59;;;4.65;100.00
60345;BME280;46188;52.324;8.032;2024-02-23T04:19:30;97868.47;;;4.67;100.00
60345;BME280;46188;52.324;8.032;2024-02-23T04:21:55;97849.31;;;4.68;100.00
60345;BME280;46188;52.324;8.032;2024-02-23T04:24:20;97871.94;;;4.69;100.00
60345;BME280;46188;52.324;8.032;2024-02-23T04:26:45;97863.25;;;4.70;100.00
60345;BME280;46188;52.324;8.032;2024-02-23T04:29:11;97878.00;;;4.71;100.00
60345;BME280;46188;52.324;8.032;2024-02-23T04:31:37;97878.00;;;4.71;100.00
60345;BME280;46188;52.324;8.032;2024-02-23T04:34:02;97866.69;;;4.71;100.00
60345;BME280;46188;52.324;8.032;2024-02-23T04:36:28;97890.19;;;4.72;100.00
60345;BME280;46188;52.324;8.032;2024-02-23T04:38:53;97887.56;;;4.72;100.00
60345;BME280;46188;52.324;8.032;2024-02-23T04:41:19;97887.56;;;4.74;100.00
60345;BME280;46188;52.324;8.032;2024-02-23T04:43:45;97887.56;;;4.72;100.00
60345;BME280;46188;52.324;8.032;2024-02-23T04:46:11;97888.41;;;4.74;100.00
60345;BME280;46188;52.324;8.032;2024-02-23T04:48:37;97885.81;;;4.74;100.00
60345;BME280;46188;52.324;8.032;2024-02-23T04:51:03;97897.09;;;4.75;100.00
60345;BME280;46188;52.324;8.032;2024-02-23T04:53:28;97897.09;;;4.76;100.00
60345;BME280;46188;52.324;8.032;2024-02-23T04:55:53;97905.81;;;4.78;100.00
60345;BME280;46188;52.324;8.032;2024-02-23T04:58:19;97901.44;;;4.77;100.00
60345;BME280;46188;52.324;8.032;2024-02-23T05:00:46;97911.03;;;4.78;100.00
60345;BME280;46188;52.324;8.032;2024-02-23T05:03:11;97920.56;;;4.79;100.00
60345;BME280;46188;52.324;8.032;2024-02-23T05:05:37;97922.31;;;4.79;100.00
60345;BME280;46188;52.324;8.032;2024-02-23T05:08:02;97921.47;;;4.78;100.00
60345;BME280;46188;52.324;8.032;2024-02-23T05:10:27;97922.31;;;4.80;100.00
60345;BME280;46188;52.324;8.032;2024-02-23T05:12:56;97934.50;;;4.78;100.00
60345;BME280;46188;52.324;8.032;2024-02-23T05:15:21;97931.91;;;4.77;100.00
60345;BME280;46188;52.324;8.032;2024-02-23T05:17:46;97915.38;;;4.75;100.00
60345;BME280;46188;52.324;8.032;2024-02-23T05:20:12;97922.34;;;4.74;100.00
60345;BME280;46188;52.324;8.032;2024-02-23T05:22:38;97939.75;;;4.74;100.00
60345;BME280;46188;52.324;8.032;2024-02-23T05:25:04;97929.31;;;4.72;100.00
60345;BME280;46188;52.324;8.032;2024-02-23T05:27:30;97934.53;;;4.72;100.00
60345;BME280;46188;52.324;8.032;2024-02-23T05:29:56;97937.16;;;4.72;100.00
60345;BME280;46188;52.324;8.032;2024-02-23T05:32:21;97931.94;;;4.72;100.00
60345;BME280;46188;52.324;8.032;2024-02-23T05:34:46;97935.41;;;4.71;100.00
60345;BME280;46188;52.324;8.032;2024-02-23T05:37:16;97938.03;;;4.71;100.00
60345;BME280;46188;52.324;8.032;2024-02-23T05:39:41;97951.97;;;4.72;100.00
60345;BME280;46188;52.324;8.032;2024-02-23T05:42:06;97938.91;;;4.70;100.00
60345;BME280;46188;52.324;8.032;2024-02-23T05:44:32;97945.00;;;4.71;100.00
60345;BME280;46188;52.324;8.032;2024-02-23T05:46:58;97951.06;;;4.71;100.00
60345;BME280;46188;52.324;8.032;2024-02-23T05:49:23;97948.47;;;4.71;100.00
60345;BME280;46188;52.324;8.032;2024-02-23T05:51:49;97952.81;;;4.71;100.00
60345;BME280;46188;52.324;8.032;2024-02-23T05:54:14;97954.56;;;4.72;100.00
60345;BME280;46188;52.324;8.032;2024-02-23T05:56:39;97958.03;;;4.72;100.00
60345;BME280;46188;52.324;8.032;2024-02-23T05:59:05;97962.41;;;4.72;100.00
60345;BME280;46188;52.324;8.032;2024-02-23T06:01:31;97954.56;;;4.73;100.00
60345;BME280;46188;52.324;8.032;2024-02-23T06:03:56;97957.16;;;4.73;100.00
60345;BME280;46188;52.324;8.032;2024-02-23T06:06:21;97964.97;;;4.75;100.00
60345;BME280;46188;52.324;8.032;2024-02-23T06:08:47;97962.34;;;4.75;100.00
60345;BME280;46188;52.324;8.032;2024-02-23T06:11:14;97970.16;;;4.76;100.00
60345;BME280;46188;52.324;8.032;2024-02-23T06:13:39;97973.66;;;4.77;100.00
60345;BME280;46188;52.324;8.032;2024-02-23T06:16:09;97974.53;;;4.77;100.00
60345;BME280;46188;52.324;8.032;2024-02-23T06:18:35;97971.91;;;4.79;100.00
60345;BME280;46188;52.324;8.032;2024-02-23T06:21:00;97975.38;;;4.79;100.00
60345;BME280;46188;52.324;8.032;2024-02-23T06:23:26;97972.75;;;4.81;100.00
60345;BME280;46188;52.324;8.032;2024-02-23T06:25:51;97982.34;;;4.84;100.00
60345;BME280;46188;52.324;8.032;2024-02-23T06:28:16;97984.94;;;4.84;100.00
60345;BME280;46188;52.324;8.032;2024-02-23T06:30:42;97987.53;;;4.85;100.00
60345;BME280;46188;52.324;8.032;2024-02-23T06:33:08;97982.31;;;4.87;100.00
60345;BME280;46188;52.324;8.032;2024-02-23T06:35:34;97984.91;;;4.88;100.00
60345;BME280;46188;52.324;8.032;2024-02-23T06:37:59;97986.63;;;4.89;100.00
60345;BME280;46188;52.324;8.032;2024-02-23T06:40:24;97980.53;;;4.92;100.00
60345;BME280;46188;52.324;8.032;2024-02-23T06:42:50;97995.31;;;4.93;100.00
60345;BME280;46188;52.324;8.032;2024-02-23T06:45:15;97996.19;;;4.95;100.00
60345;BME280;46188;52.324;8.032;2024-02-23T06:47:40;97990.06;;;4.96;100.00
60345;BME280;46188;52.324;8.032;2024-02-23T06:50:07;97990.94;;;4.96;100.00
60345;BME280;46188;52.324;8.032;2024-02-23T06:52:33;97997.91;;;4.97;100.00
60345;BME280;46188;52.324;8.032;2024-02-23T06:54:58;97997.88;;;4.99;100.00
60345;BME280;46188;52.324;8.032;2024-02-23T06:57:24;98003.97;;;5.01;100.00
60345;BME280;46188;52.324;8.032;2024-02-23T06:59:51;98000.47;;;5.02;100.00
60345;BME280;46188;52.324;8.032;2024-02-23T07:02:16;98014.38;;;5.04;100.00
60345;BME280;46188;52.324;8.032;2024-02-23T07:04:41;98016.13;;;5.05;100.00
60345;BME280;46188;52.324;8.032;2024-02-23T07:07:07;98010.91;;;5.05;100.00
60345;BME280;46188;52.324;8.032;2024-02-23T07:09:34;98009.16;;;5.07;100.00
60345;BME280;46188;52.324;8.032;2024-02-23T07:11:59;98016.13;;;5.08;100.00
60345;BME280;46188;52.324;8.032;2024-02-23T07:14:26;98018.72;;;5.10;100.00
60345;BME280;46188;52.324;8.032;2024-02-23T07:16:51;98016.06;;;5.11;100.00
60345;BME280;46188;52.324;8.032;2024-02-23T07:19:17;98020.44;;;5.12;100.00
60345;BME280;46188;52.324;8.032;2024-02-23T07:21:42;98020.44;;;5.12;100.00
60345;BME280;46188;52.324;8.032;2024-02-23T07:24:08;98023.91;;;5.13;100.00
60345;BME280;46188;52.324;8.032;2024-02-23T07:26:33;98024.78;;;5.12;100.00
60345;BME280;46188;52.324;8.032;2024-02-23T07:28:58;98021.28;;;5.13;100.00
60345;BME280;46188;52.324;8.032;2024-02-23T07:31:24;98023.88;;;5.16;100.00
60345;BME280;46188;52.324;8.032;2024-02-23T07:33:49;98029.09;;;5.17;100.00
60345;BME280;46188;52.324;8.032;2024-02-23T07:36:16;98024.72;;;5.20;100.00
60345;BME280;46188;52.324;8.032;2024-02-23T07:38:41;98015.16;;;5.22;100.00
60345;BME280;46188;52.324;8.032;2024-02-23T07:41:06;98018.59;;;5.25;100.00
60345;BME280;46188;52.324;8.032;2024-02-23T07:43:32;98018.59;;;5.28;100.00
60345;BME280;46188;52.324;8.032;2024-02-23T07:45:57;98005.50;;;5.31;100.00
60345;BME280;46188;52.324;8.032;2024-02-23T07:48:22;98022.03;;;5.33;100.00
60345;BME280;46188;52.324;8.032;2024-02-23T07:50:48;98028.09;;;5.35;100.00
60345;BME280;46188;52.324;8.032;2024-02-23T07:53:13;98023.75;;;5.36;100.00
60345;BME280;46188;52.324;8.032;2024-02-23T07:55:38;98028.09;;;5.37;100.00
60345;BME280;46188;52.324;8.032;2024-02-23T07:58:04;98039.38;;;5.39;100.00
60345;BME280;46188;52.324;8.032;2024-02-23T08:00:29;98032.41;;;5.43;100.00
60345;BME280;46188;52.324;8.032;2024-02-23T08:02:54;98031.53;;;5.45;100.00
60345;BME280;46188;52.324;8.032;2024-02-23T08:05:22;98028.88;;;5.51;100.00
60345;BME280;46188;52.324;8.032;2024-02-23T08:07:48;98030.53;;;5.57;100.00
60345;BME280;46188;52.324;8.032;2024-02-23T08:10:14;98034.81;;;5.66;100.00
60345;BME280;46188;52.324;8.032;2024-02-23T08:12:39;98033.03;;;5.72;100.00
60345;BME280;46188;52.324;8.032;2024-02-23T08:15:05;98032.97;;;5.77;100.00
60345;BME280;46188;52.324;8.032;2024-02-23T08:17:31;98036.41;;;5.82;100.00
60345;BME280;46188;52.324;8.032;2024-02-23T08:19:56;98044.22;;;5.87;100.00
60345;BME280;46188;52.324;8.032;2024-02-23T08:22:21;98038.94;;;5.93;100.00
60345;BME280;46188;52.324;8.032;2024-02-23T08:24:48;98039.81;;;5.97;100.00
60345;BME280;46188;52.324;8.032;2024-02-23T08:27:13;98040.66;;;5.99;100.00
60345;BME280;46188;52.324;8.032;2024-02-23T08:29:39;98049.31;;;6.04;100.00
60345;BME280;46188;52.324;8.032;2024-02-23T08:32:04;98042.38;;;6.04;100.00
60345;BME280;46188;52.324;8.032;2024-02-23T08:34:30;98044.91;;;6.09;100.00
60345;BME280;46188;52.324;8.032;2024-02-23T08:36:55;98043.16;;;6.11;100.00
60345;BME280;46188;52.324;8.032;2024-02-23T08:39:20;98043.16;;;6.14;100.00
60345;BME280;46188;52.324;8.032;2024-02-23T08:41:47;98051.84;;;6.16;100.00
60345;BME280;46188;52.324;8.032;2024-02-23T08:44:15;98050.06;;;6.17;100.00
60345;BME280;46188;52.324;8.032;2024-02-23T08:46:40;98051.81;;;6.19;100.00
60345;BME280;46188;52.324;8.032;2024-02-23T08:49:05;98048.25;;;6.23;100.00
60345;BME280;46188;52.324;8.032;2024-02-23T08:51:31;98043.00;;;6.25;100.00
60345;BME280;46188;52.324;8.032;2024-02-23T08:53:56;98049.06;;;6.28;100.00
60345;BME280;46188;52.324;8.032;2024-02-23T08:56:22;98051.66;;;6.32;100.00
60345;BME280;46188;52.324;8.032;2024-02-23T08:58:49;98058.66;;;6.33;100.00
60345;BME280;46188;52.324;8.032;2024-02-23T09:01:14;98062.97;;;6.32;100.00
60345;BME280;46188;52.324;8.032;2024-02-23T09:03:39;98069.09;;;6.33;100.00
60345;BME280;46188;52.324;8.032;2024-02-23T09:06:13;98076.06;;;6.34;100.00
60345;BME280;46188;52.324;8.032;2024-02-23T09:08:46;98073.44;;;6.32;100.00
60345;BME280;46188;52.324;8.032;2024-02-23T09:18:42;98055.13;;;6.34;100.00
60345;BME280;46188;52.324;8.032;2024-02-23T09:31:48;98074.28;;;6.39;100.00
60345;BME280;46188;52.324;8.032;2024-02-23T09:34:41;98081.25;;;6.37;100.00
60345;BME280;46188;52.324;8.032;2024-02-23T09:37:30;98076.94;;;6.34;100.00
60345;BME280;46188;52.324;8.032;2024-02-23T09:43:41;98088.25;;;6.35;100.00
60345;BME280;46188;52.324;8.032;2024-02-23T09:46:07;98090.88;;;6.35;100.00
60345;BME280;46188;52.324;8.032;2024-02-23T09:48:42;98099.59;;;6.34;100.00
60345;BME280;46188;52.324;8.032;2024-02-23T09:51:10;98099.59;;;6.35;100.00
60345;BME280;46188;52.324;8.032;2024-02-23T09:53:37;98100.47;;;6.36;100.00
60345;BME280;46188;52.324;8.032;2024-02-23T09:56:03;98097.88;;;6.36;100.00
60345;BME280;46188;52.324;8.032;2024-02-23T09:58:30;98096.09;;;6.38;100.00
60345;BME280;46188;52.324;8.032;2024-02-23T10:00:58;98102.16;;;6.41;100.00
60345;BME280;46188;52.324;8.032;2024-02-23T10:03:25;98102.13;;;6.43;100.00
60345;BME280;46188;52.324;8.032;2024-02-23T10:05:53;98096.88;;;6.44;100.00
60345;BME280;46188;52.324;8.032;2024-02-23T10:08:19;98094.28;;;6.43;100.00
60345;BME280;46188;52.324;8.032;2024-02-23T10:10:46;98108.22;;;6.45;100.00
60345;BME280;46188;52.324;8.032;2024-02-23T10:13:11;98101.28;;;6.44;100.00
60345;BME280;46188;52.324;8.032;2024-02-23T10:15:37;98086.44;;;6.43;100.00
60345;BME280;46188;52.324;8.032;2024-02-23T10:18:04;98107.34;;;6.44;100.00
60345;BME280;46188;52.324;8.032;2024-02-23T10:20:29;98114.34;;;6.44;100.00
60345;BME280;46188;52.324;8.032;2024-02-23T10:22:56;98096.91;;;6.43;100.00
60345;BME280;46188;52.324;8.032;2024-02-23T10:25:22;98105.59;;;6.45;100.00
60345;BME280;46188;52.324;8.032;2024-02-23T10:27:47;98099.50;;;6.46;100.00
60345;BME280;46188;52.324;8.032;2024-02-23T10:30:13;98102.94;;;6.48;100.00
60345;BME280;46188;52.324;8.032;2024-02-23T10:32:40;98102.94;;;6.51;100.00
60345;BME280;46188;52.324;8.032;2024-02-23T10:35:11;98102.91;;;6.53;100.00
60345;BME280;46188;52.324;8.032;2024-02-23T10:37:38;98109.84;;;6.57;100.00
60345;BME280;46188;52.324;8.032;2024-02-23T10:40:06;98117.66;;;6.60;100.00
60345;BME280;46188;52.324;8.032;2024-02-23T10:42:36;98115.88;;;6.62;100.00
60345;BME280;46188;52.324;8.032;2024-02-23T10:45:04;98108.88;;;6.65;100.00
60345;BME280;46188;52.324;8.032;2024-02-23T10:47:30;98110.56;;;6.70;100.00
60345;BME280;46188;52.324;8.032;2024-02-23T10:50:00;98106.97;;;6.77;100.00
60345;BME280;46188;52.324;8.032;2024-02-23T10:52:26;98120.91;;;6.82;100.00
60345;BME280;46188;52.324;8.032;2024-02-23T10:54:52;98117.38;;;6.86;100.00
60345;BME280;46188;52.324;8.032;2024-02-23T10:57:18;98122.56;;;6.91;100.00
60345;BME280;46188;52.324;8.032;2024-02-23T10:59:47;98116.41;;;6.92;100.00
60345;BME280;46188;52.324;8.032;2024-02-23T11:02:14;98105.91;;;6.93;100.00
60345;BME280;46188;52.324;8.032;2024-02-23T11:04:52;98111.16;;;6.93;100.00
60345;BME280;46188;52.324;8.032;2024-02-23T11:07:22;98110.28;;;6.93;100.00
60345;BME280;46188;52.324;8.032;2024-02-23T11:09:55;98118.16;;;6.93;100.00
60345;BME280;46188;52.324;8.032;2024-02-23T11:12:29;98116.41;;;6.92;100.00
60345;BME280;46188;52.324;8.032;2024-02-23T11:14:59;98123.38;;;6.93;100.00
60345;BME280;46188;52.324;8.032;2024-02-23T11:17:29;98121.69;;;6.90;100.00
60345;BME280;46188;52.324;8.032;2024-02-23T11:19:55;98120.78;;;6.91;100.00
60345;BME280;46188;52.324;8.032;2024-02-23T11:22:40;98124.31;;;6.90;100.00
60345;BME280;46188;52.324;8.032;2024-02-23T11:25:07;98131.28;;;6.88;100.00
60345;BME280;46188;52.324;8.032;2024-02-23T11:27:37;98130.47;;;6.86;100.00
60345;BME280;46188;52.324;8.032;2024-02-23T11:30:04;98133.06;;;6.88;100.00
60345;BME280;46188;52.324;8.032;2024-02-23T11:32:41;98120.84;;;6.85;100.00
60345;BME280;46188;52.324;8.032;2024-02-23T11:35:16;98128.72;;;6.85;100.00
60345;BME280;46188;52.324;8.032;2024-02-23T11:40:12;98120.84;;;6.85;100.00
60345;BME280;46188;52.324;8.032;2024-02-23T11:42:38;98130.47;;;6.86;100.00
60345;BME280;46188;52.324;8.032;2024-02-23T11:45:04;98133.94;;;6.85;100.00
60345;BME280;46188;52.324;8.032;2024-02-23T11:47:30;98124.34;;;6.87;100.00
60345;BME280;46188;52.324;8.032;2024-02-23T11:49:55;98126.06;;;6.88;100.00
60345;BME280;46188;52.324;8.032;2024-02-23T11:52:21;98126.88;;;6.92;100.00
60345;BME280;46188;52.324;8.032;2024-02-23T11:54:46;98113.75;;;6.95;100.00
60345;BME280;46188;52.324;8.032;2024-02-23T11:57:12;98122.50;;;6.95;100.00
60345;BME280;46188;52.324;8.032;2024-02-23T12:02:35;98111.84;;;7.08;100.00
60345;BME280;46188;52.324;8.032;2024-02-23T12:05:01;98112.59;;;7.17;100.00
60345;BME280;46188;52.324;8.032;2024-02-23T12:07:36;98098.50;;;7.26;100.00
60345;BME280;46188;52.324;8.032;2024-02-23T12:10:04;98109.84;;;7.28;100.00
60345;BME280;46188;52.324;8.032;2024-02-23T12:12:31;98110.66;;;7.33;100.00
60345;BME280;46188;52.324;8.032;2024-02-23T12:14:56;98115.75;;;7.41;100.00
60345;BME280;46188;52.324;8.032;2024-02-23T12:17:22;98109.59;;;7.47;100.00
60345;BME280;46188;52.324;8.032;2024-02-23T12:19:47;98113.03;;;7.50;100.00
60345;BME280;46188;52.324;8.032;2024-02-23T12:22:15;98106.84;;;7.53;100.00
60345;BME280;46188;52.324;8.032;2024-02-23T12:24:41;98105.94;;;7.57;100.00
60345;BME280;46188;52.324;8.032;2024-02-23T12:27:06;98112.00;;;7.59;100.00
60345;BME280;46188;52.324;8.032;2024-02-23T12:29:32;98111.13;;;7.60;100.00
60345;BME280;46188;52.324;8.032;2024-02-23T12:32:06;98113.75;;;7.62;100.00
60345;BME280;46188;52.324;8.032;2024-02-23T12:34:32;98114.56;;;7.64;100.00
60345;BME280;46188;52.324;8.032;2024-02-23T12:36:58;98114.56;;;7.64;100.00
60345;BME280;46188;52.324;8.032;2024-02-23T12:39:23;98121.59;;;7.63;100.00
60345;BME280;46188;52.324;8.032;2024-02-23T12:41:48;98125.97;;;7.61;100.00
60345;BME280;46188;52.324;8.032;2024-02-23T12:44:15;98121.66;;;7.57;100.00
60345;BME280;46188;52.324;8.032;2024-02-23T12:46:41;98134.81;;;7.54;100.00
60345;BME280;46188;52.324;8.032;2024-02-23T12:49:06;98134.88;;;7.49;100.00
60345;BME280;46188;52.324;8.032;2024-02-23T12:51:31;98127.03;;;7.48;100.00
60345;BME280;46188;52.324;8.032;2024-02-23T12:53:56;98136.63;;;7.49;100.00
60345;BME280;46188;52.324;8.032;2024-02-23T12:56:22;98137.47;;;7.51;100.00
60345;BME280;46188;52.324;8.032;2024-02-23T12:58:48;98135.69;;;7.53;100.00
60345;BME280;46188;52.324;8.032;2024-02-23T13:01:14;98138.22;;;7.59;100.00
60345;BME280;46188;52.324;8.032;2024-02-23T13:03:40;98123.22;;;7.70;100.00
60345;BME280;46188;52.324;8.032;2024-02-23T13:06:24;98124.78;;;7.82;100.00
60345;BME280;46188;52.324;8.032;2024-02-23T13:08:55;98132.50;;;7.91;100.00
60345;BME280;46188;52.324;8.032;2024-02-23T13:11:30;98136.72;;;8.00;100.00
60345;BME280;46188;52.324;8.032;2024-02-23T13:13:55;98138.47;;;8.01;100.00
60345;BME280;46188;52.324;8.032;2024-02-23T13:16:21;98141.97;;;8.02;100.00
60345;BME280;46188;52.324;8.032;2024-02-23T13:18:54;98129.63;;;8.07;100.00
60345;BME280;46188;52.324;8.032;2024-02-23T13:25:19;98138.31;;;8.10;100.00
60345;BME280;46188;52.324;8.032;2024-02-23T13:28:04;98134.84;;;8.08;100.00